Crystal Cutler — WDF6034 — position and weather

sailwx.info

Track history (hours):
 
Tides and Currents Weather Stations Pressure Air Temp Water Temp Dewpoint Dewpoint Depression Visibility Wind Speed Wind Dir Waves Ship Positions

Crystal Cutler

Owner: Poling & Cutler Marine Transportation, LLC, East Brunswick, NJ. More information available from US FCC via Universal Licensing System and Coast Guard Vessel Documentation Center.

Last reported at 2018-Feb-21 02:00 UTC. Time now 2018-Feb-21 02:00 UTC.
Position N 40°39' W 074°02'.

Length 23 m.

Type: Towing. MMSI: 367469910.

Date/timePositionNaut miles runAvg speedWind from/ knotsBaromVisibWave heightAir tempDewpointWater temp
2018-Feb-21 02:00N 40°39' W 074°02'4 7.8
2018-Feb-21 01:30N 40°35' W 074°02'4 7.8
2018-Feb-21 00:59N 40°34' W 073°57'3 6.5
2018-Feb-21 00:30N 40°35' W 073°53'7 1.5
2018-Feb-20 20:01N 40°38' W 073°45'0 0.0
2018-Feb-20 18:43N 40°38' W 073°45'0 0.0
2018-Feb-20 16:13N 40°38' W 073°45'2 6.1
2018-Feb-20 15:51N 40°37' W 073°47'2 6.4
2018-Feb-20 15:30N 40°35' W 073°50'4 7.6
2018-Feb-20 14:58N 40°34' W 073°55'4 7.2
2018-Feb-20 14:29N 40°34' W 073°59'2 3.5
2018-Feb-20 13:59N 40°35' W 074°01'0 0.1
2018-Feb-20 13:26N 40°35' W 074°01'0 0.0
2018-Feb-20 12:59N 40°35' W 074°01'0 0.0
2018-Feb-20 12:29N 40°35' W 074°01'0 0.1
2018-Feb-20 11:59N 40°35' W 074°01'0 0.1
2018-Feb-20 11:29N 40°35' W 074°01'1 1.5
2018-Feb-20 11:00N 40°35' W 074°02'3 5.4
2018-Feb-20 10:30N 40°38' W 074°03'3 6.0
2018-Feb-20 09:59N 40°39' W 074°07'3 7.0
2018-Feb-20 09:30N 40°38' W 074°11'3 0.2
2018-Feb-19 21:21N 40°36' W 074°12'2 7.0
2018-Feb-19 21:00N 40°38' W 074°12'3 6.3
2018-Feb-19 20:30N 40°39' W 074°08'3 6.3
2018-Feb-19 19:58N 40°39' W 074°03'4 9.3
2018-Feb-19 19:30N 40°42' W 073°60'3 5.3
2018-Feb-19 18:59N 40°44' W 073°56'0 0.0
2018-Feb-19 18:29N 40°44' W 073°56'0 0.0
2018-Feb-19 17:59N 40°44' W 073°56'0 0.0
2018-Feb-19 17:29N 40°44' W 073°56'0 0.0
2018-Feb-19 16:46N 40°44' W 073°56'0 0.0
2018-Feb-19 16:29N 40°44' W 073°56'0 0.0
2018-Feb-19 15:56N 40°44' W 073°56'0 0.0
2018-Feb-19 15:26N 40°44' W 073°56'0 0.0
2018-Feb-19 14:59N 40°44' W 073°56'0 0.0
2018-Feb-19 14:16N 40°44' W 073°56'0 0.1
2018-Feb-19 13:59N 40°44' W 073°56'0 0.0
2018-Feb-19 13:26N 40°44' W 073°56'0 0.0
2018-Feb-19 12:59N 40°44' W 073°56'0 0.0
2018-Feb-19 12:28N 40°44' W 073°56'0 0.0
2018-Feb-19 11:59N 40°44' W 073°56'0 0.0
2018-Feb-19 11:23N 40°44' W 073°56'0 0.0
2018-Feb-19 10:59N 40°44' W 073°56'0 0.2
2018-Feb-19 10:30N 40°44' W 073°56'0 0.9
2018-Feb-19 10:00N 40°44' W 073°57'2 3.1
2018-Feb-19 09:30N 40°43' W 073°58'2 3.2
2018-Feb-19 08:59N 40°42' W 073°60'3 5.4
2018-Feb-19 08:30N 40°40' W 074°02'3 6.3
2018-Feb-19 08:00N 40°39' W 074°06'2 4.5
2018-Feb-19 07:30N 40°40' W 074°08'2 4.1
2018-Feb-19 06:59N 40°42' W 074°07'0 0.0
2018-Feb-19 06:29N 40°42' W 074°07'0 0.0
2018-Feb-19 05:59N 40°42' W 074°07'0 0.0
2018-Feb-19 05:29N 40°42' W 074°07'0 0.0
2018-Feb-19 04:59N 40°42' W 074°07'0 0.0
2018-Feb-19 04:29N 40°42' W 074°07'0 0.0
2018-Feb-19 03:59N 40°42' W 074°07'0 0.0
2018-Feb-19 03:29N 40°42' W 074°07'0 0.0
2018-Feb-19 02:59N 40°42' W 074°07'0 0.0
2018-Feb-19 02:29N 40°42' W 074°07'0 0.0
2018-Feb-19 01:59N 40°42' W 074°07'0 0.0
2018-Feb-19 01:29N 40°42' W 074°07'0 0.0
2018-Feb-19 00:59N 40°42' W 074°07'0 0.2
2018-Feb-19 00:30N 40°42' W 074°07'3 6.3
2018-Feb-19 00:00N 40°39' W 074°09'2 2.9
2018-Feb-18 23:28N 40°39' W 074°07'0 0.0
2018-Feb-18 22:55N 40°39' W 074°07'0 0.0
2018-Feb-18 22:28N 40°39' W 074°07'0 0.0
2018-Feb-18 21:58N 40°39' W 074°07'0 0.0
2018-Feb-18 21:28N 40°39' W 074°07'0 0.0
2018-Feb-18 20:55N 40°39' W 074°07'0 0.0
2018-Feb-18 20:28N 40°39' W 074°07'0 0.0
2018-Feb-18 19:58N 40°39' W 074°07'0 0.0
2018-Feb-18 19:25N 40°39' W 074°07'0 0.0
2018-Feb-18 18:58N 40°39' W 074°07'0 0.0
2018-Feb-18 18:28N 40°39' W 074°07'0 0.0
2018-Feb-18 17:58N 40°39' W 074°07'0 0.0
2018-Feb-18 17:28N 40°39' W 074°07'0 0.0
2018-Feb-18 16:58N 40°39' W 074°07'0 0.0
2018-Feb-18 16:28N 40°39' W 074°07'0 0.0
2018-Feb-18 15:58N 40°39' W 074°07'0 0.0
2018-Feb-18 15:28N 40°39' W 074°07'0 0.0
2018-Feb-18 14:59N 40°39' W 074°07'3 6.2
2018-Feb-18 14:30N 40°39' W 074°03'1 1.1
2018-Feb-18 13:58N 40°39' W 074°02'0 0.0
2018-Feb-18 13:25N 40°39' W 074°02'0 0.0
2018-Feb-18 12:58N 40°39' W 074°02'0 0.1
2018-Feb-18 12:28N 40°39' W 074°02'0 0.0
2018-Feb-18 11:58N 40°39' W 074°02'0 0.0
2018-Feb-18 11:28N 40°39' W 074°02'0 0.0
2018-Feb-18 10:58N 40°39' W 074°02'0 0.0
2018-Feb-18 10:28N 40°39' W 074°02'0 0.1
2018-Feb-18 10:00N 40°39' W 074°02'0 0.2
2018-Feb-18 09:28N 40°39' W 074°02'0 0.0
2018-Feb-18 08:58N 40°39' W 074°02'0 0.0
2018-Feb-18 08:28N 40°39' W 074°02'0 0.0
2018-Feb-18 07:58N 40°39' W 074°02'0 0.0
2018-Feb-18 07:28N 40°39' W 074°02'0 0.0
2018-Feb-18 06:58N 40°39' W 074°02'0 0.0
2018-Feb-18 06:28N 40°39' W 074°02'0 0.0
2018-Feb-18 05:56N 40°39' W 074°02'0 0.0
2018-Feb-18 05:28N 40°39' W 074°02'0 0.0
2018-Feb-18 04:58N 40°39' W 074°02'0 0.0
2018-Feb-18 04:28N 40°39' W 074°02'0 0.0
2018-Feb-18 03:58N 40°39' W 074°02'0 0.1
2018-Feb-18 03:28N 40°39' W 074°02'0 0.1
2018-Feb-18 02:58N 40°39' W 074°02'0 0.0
2018-Feb-18 02:28N 40°39' W 074°02'0 0.0
2018-Feb-18 01:58N 40°39' W 074°02'0 0.0
2018-Feb-18 01:28N 40°39' W 074°02'0 0.0
2018-Feb-18 00:58N 40°39' W 074°02'0 0.0
2018-Feb-18 00:25N 40°39' W 074°02'0 0.0
2018-Feb-17 23:58N 40°39' W 074°02'0 0.0
2018-Feb-17 23:28N 40°39' W 074°02'0 0.0
2018-Feb-17 22:58N 40°39' W 074°02'0 0.2
2018-Feb-17 22:28N 40°39' W 074°02'1 2.1
2018-Feb-17 22:00N 40°39' W 074°03'4 7.0
2018-Feb-17 21:30N 40°35' W 074°02'3 7.0
2018-Feb-17 21:00N 40°34' W 073°57'4 7.4
2018-Feb-17 20:30N 40°35' W 073°53'4 7.5
2018-Feb-17 20:00N 40°36' W 073°48'3 5.7
2018-Feb-17 19:28N 40°38' W 073°45'0 0.0
2018-Feb-17 18:52N 40°38' W 073°45'0 0.0
2018-Feb-17 18:16N 40°38' W 073°45'0 0.0
2018-Feb-17 17:58N 40°38' W 073°45'0 0.0
2018-Feb-17 17:07N 40°38' W 073°45'0 0.0
2018-Feb-17 16:52N 40°38' W 073°45'0 0.0
2018-Feb-17 16:25N 40°38' W 073°45'0 0.0
2018-Feb-17 13:13N 40°38' W 073°45'0 0.0
2018-Feb-17 12:49N 40°38' W 073°45'0 0.0
2018-Feb-17 12:19N 40°38' W 073°45'0 0.0
2018-Feb-17 09:22N 40°38' W 073°45'0 0.0
2018-Feb-17 08:52N 40°38' W 073°45'0 0.0
2018-Feb-17 08:22N 40°38' W 073°45'0 0.0
2018-Feb-17 07:46N 40°38' W 073°45'0 0.0
2018-Feb-17 07:28N 40°38' W 073°45'0 0.0
2018-Feb-17 06:34N 40°38' W 073°45'0 0.0
2018-Feb-17 06:07N 40°38' W 073°45'0 0.0
2018-Feb-17 05:55N 40°38' W 073°45'0 0.0
2018-Feb-17 03:16N 40°38' W 073°45'0 0.0
2018-Feb-17 02:58N 40°38' W 073°45'0 0.0
2018-Feb-17 02:22N 40°38' W 073°45'0 0.0
2018-Feb-17 01:55N 40°38' W 073°45'0 0.0
2018-Feb-17 01:19N 40°38' W 073°45'0 0.0
2018-Feb-16 14:28N 40°38' W 073°45'4 6.6
2018-Feb-16 13:53N 40°36' W 073°49'3 5.0
2018-Feb-16 13:17N 40°35' W 073°53'3 8.2
2018-Feb-16 12:57N 40°34' W 073°56'3 7.5
2018-Feb-16 12:30N 40°34' W 074°01'3 6.9
2018-Feb-16 12:00N 40°37' W 074°03'2 4.4
2018-Feb-16 11:28N 40°39' W 074°02'1 2.0
2018-Feb-16 10:59N 40°39' W 074°02'2 3.4
2018-Feb-16 10:30N 40°37' W 074°03'3 5.7
2018-Feb-16 10:00N 40°39' W 074°05'3 5.9
2018-Feb-16 09:30N 40°39' W 074°09'3 6.0
2018-Feb-16 09:00N 40°37' W 074°12'1 0.2
2018-Feb-16 01:38N 40°35' W 074°13'0 0.3
2018-Feb-16 01:21N 40°35' W 074°12'2 5.7
2018-Feb-16 01:00N 40°37' W 074°12'2 4.5
2018-Feb-16 00:31N 40°39' W 074°10'2 3.1
2018-Feb-16 00:00N 40°39' W 074°08'3 5.1
2018-Feb-15 23:30N 40°38' W 074°12'3 1.4
2018-Feb-15 21:21N 40°36' W 074°12'1 2.4
2018-Feb-15 21:00N 40°36' W 074°12'2 4.1
2018-Feb-15 20:28N 40°38' W 074°12'2 4.9
2018-Feb-15 20:00N 40°39' W 074°08'3 6.1
2018-Feb-15 19:30N 40°39' W 074°05'4 8.1
2018-Feb-15 19:00N 40°42' W 074°00'4 7.1
2018-Feb-15 18:29N 40°44' W 073°57'0 0.8
2018-Feb-15 17:57N 40°44' W 073°56'0 0.0
2018-Feb-15 17:29N 40°44' W 073°56'0 0.0
2018-Feb-15 16:59N 40°44' W 073°56'0 0.0
2018-Feb-15 15:59N 40°44' W 073°56'0 0.0
2018-Feb-15 15:24N 40°44' W 073°56'0 0.0
2018-Feb-15 15:00N 40°44' W 073°56'0 0.0
2018-Feb-15 14:00N 40°44' W 073°56'0 0.0
2018-Feb-15 13:30N 40°44' W 073°56'0 0.0
2018-Feb-15 12:59N 40°44' W 073°56'0 0.0
2018-Feb-15 12:27N 40°44' W 073°56'0 0.0
2018-Feb-15 12:00N 40°44' W 073°56'0 0.0
2018-Feb-15 11:27N 40°44' W 073°56'0 0.0
2018-Feb-15 10:57N 40°44' W 073°56'0 0.2
2018-Feb-15 10:30N 40°44' W 073°56'0 0.6
2018-Feb-15 10:00N 40°44' W 073°56'1 2.6
2018-Feb-15 09:30N 40°43' W 073°58'4 7.3
2018-Feb-15 09:01N 40°41' W 074°01'3 6.2
2018-Feb-15 08:28N 40°39' W 074°05'3 6.8
2018-Feb-15 08:00N 40°39' W 074°09'3 5.6
2018-Feb-15 07:30N 40°37' W 074°12'1 0.2
2018-Feb-14 23:57N 40°36' W 074°12'2 3.5
2018-Feb-14 23:30N 40°37' W 074°12'3 5.6
2018-Feb-14 23:00N 40°39' W 074°09'4 8.2
2018-Feb-14 22:30N 40°39' W 074°04'1 2.8
2018-Feb-14 21:58N 40°39' W 074°02'0 0.0
2018-Feb-14 21:28N 40°39' W 074°02'0 0.0
2018-Feb-14 20:58N 40°39' W 074°02'0 0.0
2018-Feb-14 20:28N 40°39' W 074°02'0 0.2
2018-Feb-14 19:58N 40°39' W 074°02'0 0.0
2018-Feb-14 19:29N 40°39' W 074°02'0 0.0
2018-Feb-14 18:59N 40°39' W 074°02'0 0.0
2018-Feb-14 18:29N 40°39' W 074°02'0 0.0
2018-Feb-14 17:58N 40°39' W 074°02'0 0.0
2018-Feb-14 17:28N 40°39' W 074°02'0 0.0
2018-Feb-14 16:58N 40°39' W 074°02'0 0.1
2018-Feb-14 16:28N 40°39' W 074°02'0 0.1
2018-Feb-14 15:58N 40°39' W 074°02'0 0.0
2018-Feb-14 15:28N 40°39' W 074°02'0 0.1
2018-Feb-14 14:58N 40°39' W 074°02'0 0.1
2018-Feb-14 14:28N 40°39' W 074°02'0 0.0
2018-Feb-14 13:58N 40°39' W 074°02'0 0.1
2018-Feb-14 13:28N 40°39' W 074°02'0 0.0
2018-Feb-14 12:58N 40°39' W 074°02'0 0.0
2018-Feb-14 12:28N 40°39' W 074°02'0 0.0
2018-Feb-14 11:58N 40°39' W 074°02'0 0.0
2018-Feb-14 11:28N 40°39' W 074°02'0 0.0
2018-Feb-14 10:58N 40°39' W 074°02'0 0.0
2018-Feb-14 10:28N 40°39' W 074°02'0 0.0
2018-Feb-14 09:58N 40°39' W 074°02'0 0.0
2018-Feb-14 09:28N 40°39' W 074°02'0 0.1
2018-Feb-14 08:58N 40°39' W 074°02'0 0.1
2018-Feb-14 08:28N 40°39' W 074°02'0 0.0
2018-Feb-14 07:58N 40°39' W 074°02'0 0.0
2018-Feb-14 07:28N 40°39' W 074°02'0 0.0
2018-Feb-14 06:58N 40°39' W 074°02'0 0.0
2018-Feb-14 06:28N 40°39' W 074°02'0 0.0
2018-Feb-14 05:58N 40°39' W 074°02'0 0.0
2018-Feb-14 05:28N 40°39' W 074°02'0 0.0
2018-Feb-14 04:58N 40°39' W 074°02'0 0.0
2018-Feb-14 04:28N 40°39' W 074°02'0 0.1
2018-Feb-14 03:58N 40°39' W 074°02'0 0.0
2018-Feb-14 03:28N 40°39' W 074°02'0 0.0
2018-Feb-14 02:59N 40°39' W 074°02'0 0.1
2018-Feb-14 02:28N 40°39' W 074°02'0 0.1
2018-Feb-14 01:58N 40°39' W 074°02'0 0.1
2018-Feb-14 01:28N 40°39' W 074°02'0 0.0
2018-Feb-14 00:58N 40°39' W 074°02'0 0.0
2018-Feb-14 00:28N 40°39' W 074°02'0 0.0
2018-Feb-13 23:58N 40°39' W 074°02'2 3.7
2018-Feb-13 23:30N 40°38' W 074°04'4 7.0
2018-Feb-13 23:00N 40°35' W 074°01'4 7.8
2018-Feb-13 22:30N 40°34' W 073°57'4 7.5
2018-Feb-13 22:00N 40°35' W 073°52'4 7.1
2018-Feb-13 21:30N 40°36' W 073°48'1 0.9
2018-Feb-13 20:49N 40°36' W 073°48'1 2.0
2018-Feb-13 20:28N 40°36' W 073°48'3 0.4
2018-Feb-13 14:20N 40°38' W 073°45'4 4.2
2018-Feb-13 13:16N 40°35' W 073°50'2 5.6
2018-Feb-13 12:58N 40°35' W 073°52'2 4.6
2018-Feb-13 12:29N 40°34' W 073°54'4 6.2
2018-Feb-13 11:53N 40°34' W 073°59'3 7.1
2018-Feb-13 11:30N 40°36' W 074°02'3 7.1
2018-Feb-13 11:00N 40°39' W 074°04'4 7.3
2018-Feb-13 10:29N 40°39' W 074°09'3 6.4
2018-Feb-13 09:58N 40°36' W 074°12'1 2.5
2018-Feb-13 09:29N 40°35' W 074°13'0 0.0
2018-Feb-13 08:59N 40°35' W 074°13'0 0.0
2018-Feb-13 08:29N 40°35' W 074°13'0 0.0
2018-Feb-13 07:11N 40°35' W 074°13'0 0.0
2018-Feb-13 06:53N 40°35' W 074°13'0 0.0
2018-Feb-13 06:29N 40°35' W 074°13'0 0.0
2018-Feb-13 05:59N 40°35' W 074°13'0 0.0
2018-Feb-13 05:29N 40°35' W 074°13'0 0.0
2018-Feb-13 04:53N 40°35' W 074°13'0 0.0
2018-Feb-13 04:23N 40°35' W 074°13'0 0.0
2018-Feb-13 03:59N 40°35' W 074°13'0 0.0
2018-Feb-13 03:05N 40°35' W 074°13'0 0.1
2018-Feb-13 02:59N 40°35' W 074°13'0 0.0
2018-Feb-13 02:29N 40°35' W 074°13'0 0.0
2018-Feb-13 01:59N 40°35' W 074°13'0 0.1
2018-Feb-12 23:22N 40°35' W 074°13'2 6.6
2018-Feb-12 23:00N 40°37' W 074°12'3 5.7
2018-Feb-12 22:30N 40°39' W 074°09'4 7.1
2018-Feb-12 22:00N 40°39' W 074°04'4 7.7
2018-Feb-12 21:30N 40°42' W 074°01'3 5.1
2018-Feb-12 21:00N 40°43' W 073°58'1 2.8
2018-Feb-12 20:28N 40°44' W 073°56'0 0.0
2018-Feb-12 19:52N 40°44' W 073°56'0 0.0
2018-Feb-12 19:28N 40°44' W 073°56'0 0.0
2018-Feb-12 18:55N 40°44' W 073°56'0 0.0
2018-Feb-12 18:22N 40°44' W 073°56'0 0.0
2018-Feb-12 17:58N 40°44' W 073°56'0 0.0
2018-Feb-12 17:28N 40°44' W 073°56'0 0.0
2018-Feb-12 16:49N 40°44' W 073°56'0 0.0
2018-Feb-12 16:28N 40°44' W 073°56'0 0.0
2018-Feb-12 15:58N 40°44' W 073°56'0 0.0
2018-Feb-12 15:16N 40°44' W 073°56'1 2.4
2018-Feb-12 15:00N 40°43' W 073°56'2 3.7
2018-Feb-12 14:30N 40°44' W 073°58'2 4.8
2018-Feb-12 14:00N 40°42' W 073°60'3 6.6
2018-Feb-12 13:30N 40°40' W 074°03'4 8.5
2018-Feb-12 13:00N 40°39' W 074°08'3 6.5
2018-Feb-12 12:30N 40°37' W 074°12'5 1.0
2018-Feb-12 07:25N 40°33' W 074°15'1 0.1
2018-Feb-11 15:13N 40°33' W 074°14'2 7.6
2018-Feb-11 14:57N 40°35' W 074°13'4 8.4
2018-Feb-11 14:30N 40°39' W 074°11'1 1.1
2018-Feb-11 13:15N 40°38' W 074°10'0 0.0
2018-Feb-11 12:51N 40°38' W 074°10'0 0.0
2018-Feb-11 12:03N 40°38' W 074°10'0 0.0
2018-Feb-11 11:45N 40°38' W 074°10'0 0.0
2018-Feb-11 11:27N 40°38' W 074°10'0 0.0
2018-Feb-11 10:51N 40°38' W 074°10'0 0.0
2018-Feb-11 10:27N 40°38' W 074°10'0 0.0
2018-Feb-11 09:57N 40°38' W 074°10'0 0.0
2018-Feb-11 04:09N 40°38' W 074°10'0 0.0
2018-Feb-11 04:00N 40°38' W 074°10'1 1.5
2018-Feb-11 03:30N 40°39' W 074°10'2 3.8
2018-Feb-11 03:00N 40°38' W 074°12'2 4.4
2018-Feb-11 02:30N 40°35' W 074°12'  
Track history (hours):
 
Tides and Currents Weather Stations Pressure Air Temp Water Temp Dewpoint Dewpoint Depression Visibility Wind Speed Wind Dir Waves Ship Positions

Crystal Cutler

Owner: Poling & Cutler Marine Transportation, LLC, East Brunswick, NJ. More information available from US FCC via Universal Licensing System and Coast Guard Vessel Documentation Center.

Last reported at 2018-Feb-21 02:00 UTC. Time now 2018-Feb-21 02:00 UTC.
Position N 40°39' W 074°02'.

Length 23 m.

Type: Towing. MMSI: 367469910.

Date/timePositionNaut miles runAvg speedWind from/ knotsBaromVisibWave heightAir tempDewpointWater temp
2018-Feb-21 02:00N 40°39' W 074°02'4 7.8
2018-Feb-21 01:30N 40°35' W 074°02'4 7.8
2018-Feb-21 00:59N 40°34' W 073°57'3 6.5
2018-Feb-21 00:30N 40°35' W 073°53'7 1.5
2018-Feb-20 20:01N 40°38' W 073°45'0 0.0
2018-Feb-20 18:43N 40°38' W 073°45'0 0.0
2018-Feb-20 16:13N 40°38' W 073°45'2 6.1
2018-Feb-20 15:51N 40°37' W 073°47'2 6.4
2018-Feb-20 15:30N 40°35' W 073°50'4 7.6
2018-Feb-20 14:58N 40°34' W 073°55'4 7.2
2018-Feb-20 14:29N 40°34' W 073°59'2 3.5
2018-Feb-20 13:59N 40°35' W 074°01'0 0.1
2018-Feb-20 13:26N 40°35' W 074°01'0 0.0
2018-Feb-20 12:59N 40°35' W 074°01'0 0.0
2018-Feb-20 12:29N 40°35' W 074°01'0 0.1
2018-Feb-20 11:59N 40°35' W 074°01'0 0.1
2018-Feb-20 11:29N 40°35' W 074°01'1 1.5
2018-Feb-20 11:00N 40°35' W 074°02'3 5.4
2018-Feb-20 10:30N 40°38' W 074°03'3 6.0
2018-Feb-20 09:59N 40°39' W 074°07'3 7.0
2018-Feb-20 09:30N 40°38' W 074°11'3 0.2
2018-Feb-19 21:21N 40°36' W 074°12'2 7.0
2018-Feb-19 21:00N 40°38' W 074°12'3 6.3
2018-Feb-19 20:30N 40°39' W 074°08'3 6.3
2018-Feb-19 19:58N 40°39' W 074°03'4 9.3
2018-Feb-19 19:30N 40°42' W 073°60'3 5.3
2018-Feb-19 18:59N 40°44' W 073°56'0 0.0
2018-Feb-19 18:29N 40°44' W 073°56'0 0.0
2018-Feb-19 17:59N 40°44' W 073°56'0 0.0
2018-Feb-19 17:29N 40°44' W 073°56'0 0.0
2018-Feb-19 16:46N 40°44' W 073°56'0 0.0
2018-Feb-19 16:29N 40°44' W 073°56'0 0.0
2018-Feb-19 15:56N 40°44' W 073°56'0 0.0
2018-Feb-19 15:26N 40°44' W 073°56'0 0.0
2018-Feb-19 14:59N 40°44' W 073°56'0 0.0
2018-Feb-19 14:16N 40°44' W 073°56'0 0.1
2018-Feb-19 13:59N 40°44' W 073°56'0 0.0
2018-Feb-19 13:26N 40°44' W 073°56'0 0.0
2018-Feb-19 12:59N 40°44' W 073°56'0 0.0
2018-Feb-19 12:28N 40°44' W 073°56'0 0.0
2018-Feb-19 11:59N 40°44' W 073°56'0 0.0
2018-Feb-19 11:23N 40°44' W 073°56'0 0.0
2018-Feb-19 10:59N 40°44' W 073°56'0 0.2
2018-Feb-19 10:30N 40°44' W 073°56'0 0.9
2018-Feb-19 10:00N 40°44' W 073°57'2 3.1
2018-Feb-19 09:30N 40°43' W 073°58'2 3.2
2018-Feb-19 08:59N 40°42' W 073°60'3 5.4
2018-Feb-19 08:30N 40°40' W 074°02'3 6.3
2018-Feb-19 08:00N 40°39' W 074°06'2 4.5
2018-Feb-19 07:30N 40°40' W 074°08'2 4.1
2018-Feb-19 06:59N 40°42' W 074°07'0 0.0
2018-Feb-19 06:29N 40°42' W 074°07'0 0.0
2018-Feb-19 05:59N 40°42' W 074°07'0 0.0
2018-Feb-19 05:29N 40°42' W 074°07'0 0.0
2018-Feb-19 04:59N 40°42' W 074°07'0 0.0
2018-Feb-19 04:29N 40°42' W 074°07'0 0.0
2018-Feb-19 03:59N 40°42' W 074°07'0 0.0
2018-Feb-19 03:29N 40°42' W 074°07'0 0.0
2018-Feb-19 02:59N 40°42' W 074°07'0 0.0
2018-Feb-19 02:29N 40°42' W 074°07'0 0.0
2018-Feb-19 01:59N 40°42' W 074°07'0 0.0
2018-Feb-19 01:29N 40°42' W 074°07'0 0.0
2018-Feb-19 00:59N 40°42' W 074°07'0 0.2
2018-Feb-19 00:30N 40°42' W 074°07'3 6.3
2018-Feb-19 00:00N 40°39' W 074°09'2 2.9
2018-Feb-18 23:28N 40°39' W 074°07'0 0.0
2018-Feb-18 22:55N 40°39' W 074°07'0 0.0
2018-Feb-18 22:28N 40°39' W 074°07'0 0.0
2018-Feb-18 21:58N 40°39' W 074°07'0 0.0
2018-Feb-18 21:28N 40°39' W 074°07'0 0.0
2018-Feb-18 20:55N 40°39' W 074°07'0 0.0
2018-Feb-18 20:28N 40°39' W 074°07'0 0.0
2018-Feb-18 19:58N 40°39' W 074°07'0 0.0
2018-Feb-18 19:25N 40°39' W 074°07'0 0.0
2018-Feb-18 18:58N 40°39' W 074°07'0 0.0
2018-Feb-18 18:28N 40°39' W 074°07'0 0.0
2018-Feb-18 17:58N 40°39' W 074°07'0 0.0
2018-Feb-18 17:28N 40°39' W 074°07'0 0.0
2018-Feb-18 16:58N 40°39' W 074°07'0 0.0
2018-Feb-18 16:28N 40°39' W 074°07'0 0.0
2018-Feb-18 15:58N 40°39' W 074°07'0 0.0
2018-Feb-18 15:28N 40°39' W 074°07'0 0.0
2018-Feb-18 14:59N 40°39' W 074°07'3 6.2
2018-Feb-18 14:30N 40°39' W 074°03'1 1.1
2018-Feb-18 13:58N 40°39' W 074°02'0 0.0
2018-Feb-18 13:25N 40°39' W 074°02'0 0.0
2018-Feb-18 12:58N 40°39' W 074°02'0 0.1
2018-Feb-18 12:28N 40°39' W 074°02'0 0.0
2018-Feb-18 11:58N 40°39' W 074°02'0 0.0
2018-Feb-18 11:28N 40°39' W 074°02'0 0.0
2018-Feb-18 10:58N 40°39' W 074°02'0 0.0
2018-Feb-18 10:28N 40°39' W 074°02'0 0.1
2018-Feb-18 10:00N 40°39' W 074°02'0 0.2
2018-Feb-18 09:28N 40°39' W 074°02'0 0.0
2018-Feb-18 08:58N 40°39' W 074°02'0 0.0
2018-Feb-18 08:28N 40°39' W 074°02'0 0.0
2018-Feb-18 07:58N 40°39' W 074°02'0 0.0
2018-Feb-18 07:28N 40°39' W 074°02'0 0.0
2018-Feb-18 06:58N 40°39' W 074°02'0 0.0
2018-Feb-18 06:28N 40°39' W 074°02'0 0.0
2018-Feb-18 05:56N 40°39' W 074°02'0 0.0
2018-Feb-18 05:28N 40°39' W 074°02'0 0.0
2018-Feb-18 04:58N 40°39' W 074°02'0 0.0
2018-Feb-18 04:28N 40°39' W 074°02'0 0.0
2018-Feb-18 03:58N 40°39' W 074°02'0 0.1
2018-Feb-18 03:28N 40°39' W 074°02'0 0.1
2018-Feb-18 02:58N 40°39' W 074°02'0 0.0
2018-Feb-18 02:28N 40°39' W 074°02'0 0.0
2018-Feb-18 01:58N 40°39' W 074°02'0 0.0
2018-Feb-18 01:28N 40°39' W 074°02'0 0.0
2018-Feb-18 00:58N 40°39' W 074°02'0 0.0
2018-Feb-18 00:25N 40°39' W 074°02'0 0.0
2018-Feb-17 23:58N 40°39' W 074°02'0 0.0
2018-Feb-17 23:28N 40°39' W 074°02'0 0.0
2018-Feb-17 22:58N 40°39' W 074°02'0 0.2
2018-Feb-17 22:28N 40°39' W 074°02'1 2.1
2018-Feb-17 22:00N 40°39' W 074°03'4 7.0
2018-Feb-17 21:30N 40°35' W 074°02'3 7.0
2018-Feb-17 21:00N 40°34' W 073°57'4 7.4
2018-Feb-17 20:30N 40°35' W 073°53'4 7.5
2018-Feb-17 20:00N 40°36' W 073°48'3 5.7
2018-Feb-17 19:28N 40°38' W 073°45'0 0.0
2018-Feb-17 18:52N 40°38' W 073°45'0 0.0
2018-Feb-17 18:16N 40°38' W 073°45'0 0.0
2018-Feb-17 17:58N 40°38' W 073°45'0 0.0
2018-Feb-17 17:07N 40°38' W 073°45'0 0.0
2018-Feb-17 16:52N 40°38' W 073°45'0 0.0
2018-Feb-17 16:25N 40°38' W 073°45'0 0.0
2018-Feb-17 13:13N 40°38' W 073°45'0 0.0
2018-Feb-17 12:49N 40°38' W 073°45'0 0.0
2018-Feb-17 12:19N 40°38' W 073°45'0 0.0
2018-Feb-17 09:22N 40°38' W 073°45'0 0.0
2018-Feb-17 08:52N 40°38' W 073°45'0 0.0
2018-Feb-17 08:22N 40°38' W 073°45'0 0.0
2018-Feb-17 07:46N 40°38' W 073°45'0 0.0
2018-Feb-17 07:28N 40°38' W 073°45'0 0.0
2018-Feb-17 06:34N 40°38' W 073°45'0 0.0
2018-Feb-17 06:07N 40°38' W 073°45'0 0.0
2018-Feb-17 05:55N 40°38' W 073°45'0 0.0
2018-Feb-17 03:16N 40°38' W 073°45'0 0.0
2018-Feb-17 02:58N 40°38' W 073°45'0 0.0
2018-Feb-17 02:22N 40°38' W 073°45'0 0.0
2018-Feb-17 01:55N 40°38' W 073°45'0 0.0
2018-Feb-17 01:19N 40°38' W 073°45'0 0.0
2018-Feb-16 14:28N 40°38' W 073°45'4 6.6
2018-Feb-16 13:53N 40°36' W 073°49'3 5.0
2018-Feb-16 13:17N 40°35' W 073°53'3 8.2
2018-Feb-16 12:57N 40°34' W 073°56'3 7.5
2018-Feb-16 12:30N 40°34' W 074°01'3 6.9
2018-Feb-16 12:00N 40°37' W 074°03'2 4.4
2018-Feb-16 11:28N 40°39' W 074°02'1 2.0
2018-Feb-16 10:59N 40°39' W 074°02'2 3.4
2018-Feb-16 10:30N 40°37' W 074°03'3 5.7
2018-Feb-16 10:00N 40°39' W 074°05'3 5.9
2018-Feb-16 09:30N 40°39' W 074°09'3 6.0
2018-Feb-16 09:00N 40°37' W 074°12'1 0.2
2018-Feb-16 01:38N 40°35' W 074°13'0 0.3
2018-Feb-16 01:21N 40°35' W 074°12'2 5.7
2018-Feb-16 01:00N 40°37' W 074°12'2 4.5
2018-Feb-16 00:31N 40°39' W 074°10'2 3.1
2018-Feb-16 00:00N 40°39' W 074°08'3 5.1
2018-Feb-15 23:30N 40°38' W 074°12'3 1.4
2018-Feb-15 21:21N 40°36' W 074°12'1 2.4
2018-Feb-15 21:00N 40°36' W 074°12'2 4.1
2018-Feb-15 20:28N 40°38' W 074°12'2 4.9
2018-Feb-15 20:00N 40°39' W 074°08'3 6.1
2018-Feb-15 19:30N 40°39' W 074°05'4 8.1
2018-Feb-15 19:00N 40°42' W 074°00'4 7.1
2018-Feb-15 18:29N 40°44' W 073°57'0 0.8
2018-Feb-15 17:57N 40°44' W 073°56'0 0.0
2018-Feb-15 17:29N 40°44' W 073°56'0 0.0
2018-Feb-15 16:59N 40°44' W 073°56'0 0.0
2018-Feb-15 15:59N 40°44' W 073°56'0 0.0
2018-Feb-15 15:24N 40°44' W 073°56'0 0.0
2018-Feb-15 15:00N 40°44' W 073°56'0 0.0
2018-Feb-15 14:00N 40°44' W 073°56'0 0.0
2018-Feb-15 13:30N 40°44' W 073°56'0 0.0
2018-Feb-15 12:59N 40°44' W 073°56'0 0.0
2018-Feb-15 12:27N 40°44' W 073°56'0 0.0
2018-Feb-15 12:00N 40°44' W 073°56'0 0.0
2018-Feb-15 11:27N 40°44' W 073°56'0 0.0
2018-Feb-15 10:57N 40°44' W 073°56'0 0.2
2018-Feb-15 10:30N 40°44' W 073°56'0 0.6
2018-Feb-15 10:00N 40°44' W 073°56'1 2.6
2018-Feb-15 09:30N 40°43' W 073°58'4 7.3
2018-Feb-15 09:01N 40°41' W 074°01'3 6.2
2018-Feb-15 08:28N 40°39' W 074°05'3 6.8
2018-Feb-15 08:00N 40°39' W 074°09'3 5.6
2018-Feb-15 07:30N 40°37' W 074°12'1 0.2
2018-Feb-14 23:57N 40°36' W 074°12'2 3.5
2018-Feb-14 23:30N 40°37' W 074°12'3 5.6
2018-Feb-14 23:00N 40°39' W 074°09'4 8.2
2018-Feb-14 22:30N 40°39' W 074°04'1 2.8
2018-Feb-14 21:58N 40°39' W 074°02'0 0.0
2018-Feb-14 21:28N 40°39' W 074°02'0 0.0
2018-Feb-14 20:58N 40°39' W 074°02'0 0.0
2018-Feb-14 20:28N 40°39' W 074°02'0 0.2
2018-Feb-14 19:58N 40°39' W 074°02'0 0.0
2018-Feb-14 19:29N 40°39' W 074°02'0 0.0
2018-Feb-14 18:59N 40°39' W 074°02'0 0.0
2018-Feb-14 18:29N 40°39' W 074°02'0 0.0
2018-Feb-14 17:58N 40°39' W 074°02'0 0.0
2018-Feb-14 17:28N 40°39' W 074°02'0 0.0
2018-Feb-14 16:58N 40°39' W 074°02'0 0.1
2018-Feb-14 16:28N 40°39' W 074°02'0 0.1
2018-Feb-14 15:58N 40°39' W 074°02'0 0.0
2018-Feb-14 15:28N 40°39' W 074°02'0 0.1
2018-Feb-14 14:58N 40°39' W 074°02'0 0.1
2018-Feb-14 14:28N 40°39' W 074°02'0 0.0
2018-Feb-14 13:58N 40°39' W 074°02'0 0.1
2018-Feb-14 13:28N 40°39' W 074°02'0 0.0
2018-Feb-14 12:58N 40°39' W 074°02'0 0.0
2018-Feb-14 12:28N 40°39' W 074°02'0 0.0
2018-Feb-14 11:58N 40°39' W 074°02'0 0.0
2018-Feb-14 11:28N 40°39' W 074°02'0 0.0
2018-Feb-14 10:58N 40°39' W 074°02'0 0.0
2018-Feb-14 10:28N 40°39' W 074°02'0 0.0
2018-Feb-14 09:58N 40°39' W 074°02'0 0.0
2018-Feb-14 09:28N 40°39' W 074°02'0 0.1
2018-Feb-14 08:58N 40°39' W 074°02'0 0.1
2018-Feb-14 08:28N 40°39' W 074°02'0 0.0
2018-Feb-14 07:58N 40°39' W 074°02'0 0.0
2018-Feb-14 07:28N 40°39' W 074°02'0 0.0
2018-Feb-14 06:58N 40°39' W 074°02'0 0.0
2018-Feb-14 06:28N 40°39' W 074°02'0 0.0
2018-Feb-14 05:58N 40°39' W 074°02'0 0.0
2018-Feb-14 05:28N 40°39' W 074°02'0 0.0
2018-Feb-14 04:58N 40°39' W 074°02'0 0.0
2018-Feb-14 04:28N 40°39' W 074°02'0 0.1
2018-Feb-14 03:58N 40°39' W 074°02'0 0.0
2018-Feb-14 03:28N 40°39' W 074°02'0 0.0
2018-Feb-14 02:59N 40°39' W 074°02'0 0.1
2018-Feb-14 02:28N 40°39' W 074°02'0 0.1
2018-Feb-14 01:58N 40°39' W 074°02'0 0.1
2018-Feb-14 01:28N 40°39' W 074°02'0 0.0
2018-Feb-14 00:58N 40°39' W 074°02'0 0.0
2018-Feb-14 00:28N 40°39' W 074°02'0 0.0
2018-Feb-13 23:58N 40°39' W 074°02'2 3.7
2018-Feb-13 23:30N 40°38' W 074°04'4 7.0
2018-Feb-13 23:00N 40°35' W 074°01'4 7.8
2018-Feb-13 22:30N 40°34' W 073°57'4 7.5
2018-Feb-13 22:00N 40°35' W 073°52'4 7.1
2018-Feb-13 21:30N 40°36' W 073°48'1 0.9
2018-Feb-13 20:49N 40°36' W 073°48'1 2.0
2018-Feb-13 20:28N 40°36' W 073°48'3 0.4
2018-Feb-13 14:20N 40°38' W 073°45'4 4.2
2018-Feb-13 13:16N 40°35' W 073°50'2 5.6
2018-Feb-13 12:58N 40°35' W 073°52'2 4.6
2018-Feb-13 12:29N 40°34' W 073°54'4 6.2
2018-Feb-13 11:53N 40°34' W 073°59'3 7.1
2018-Feb-13 11:30N 40°36' W 074°02'3 7.1
2018-Feb-13 11:00N 40°39' W 074°04'4 7.3
2018-Feb-13 10:29N 40°39' W 074°09'3 6.4
2018-Feb-13 09:58N 40°36' W 074°12'1 2.5
2018-Feb-13 09:29N 40°35' W 074°13'0 0.0
2018-Feb-13 08:59N 40°35' W 074°13'0 0.0
2018-Feb-13 08:29N 40°35' W 074°13'0 0.0
2018-Feb-13 07:11N 40°35' W 074°13'0 0.0
2018-Feb-13 06:53N 40°35' W 074°13'0 0.0
2018-Feb-13 06:29N 40°35' W 074°13'0 0.0
2018-Feb-13 05:59N 40°35' W 074°13'0 0.0
2018-Feb-13 05:29N 40°35' W 074°13'0 0.0
2018-Feb-13 04:53N 40°35' W 074°13'0 0.0
2018-Feb-13 04:23N 40°35' W 074°13'0 0.0
2018-Feb-13 03:59N 40°35' W 074°13'0 0.0
2018-Feb-13 03:05N 40°35' W 074°13'0 0.1
2018-Feb-13 02:59N 40°35' W 074°13'0 0.0
2018-Feb-13 02:29N 40°35' W 074°13'0 0.0
2018-Feb-13 01:59N 40°35' W 074°13'0 0.1
2018-Feb-12 23:22N 40°35' W 074°13'2 6.6
2018-Feb-12 23:00N 40°37' W 074°12'3 5.7
2018-Feb-12 22:30N 40°39' W 074°09'4 7.1
2018-Feb-12 22:00N 40°39' W 074°04'4 7.7
2018-Feb-12 21:30N 40°42' W 074°01'3 5.1
2018-Feb-12 21:00N 40°43' W 073°58'1 2.8
2018-Feb-12 20:28N 40°44' W 073°56'0 0.0
2018-Feb-12 19:52N 40°44' W 073°56'0 0.0
2018-Feb-12 19:28N 40°44' W 073°56'0 0.0
2018-Feb-12 18:55N 40°44' W 073°56'0 0.0
2018-Feb-12 18:22N 40°44' W 073°56'0 0.0
2018-Feb-12 17:58N 40°44' W 073°56'0 0.0
2018-Feb-12 17:28N 40°44' W 073°56'0 0.0
2018-Feb-12 16:49N 40°44' W 073°56'0 0.0
2018-Feb-12 16:28N 40°44' W 073°56'0 0.0
2018-Feb-12 15:58N 40°44' W 073°56'0 0.0
2018-Feb-12 15:16N 40°44' W 073°56'1 2.4
2018-Feb-12 15:00N 40°43' W 073°56'2 3.7
2018-Feb-12 14:30N 40°44' W 073°58'2 4.8
2018-Feb-12 14:00N 40°42' W 073°60'3 6.6
2018-Feb-12 13:30N 40°40' W 074°03'4 8.5
2018-Feb-12 13:00N 40°39' W 074°08'3 6.5
2018-Feb-12 12:30N 40°37' W 074°12'5 1.0
2018-Feb-12 07:25N 40°33' W 074°15'1 0.1
2018-Feb-11 15:13N 40°33' W 074°14'2 7.6
2018-Feb-11 14:57N 40°35' W 074°13'4 8.4
2018-Feb-11 14:30N 40°39' W 074°11'1 1.1
2018-Feb-11 13:15N 40°38' W 074°10'0 0.0
2018-Feb-11 12:51N 40°38' W 074°10'0 0.0
2018-Feb-11 12:03N 40°38' W 074°10'0 0.0
2018-Feb-11 11:45N 40°38' W 074°10'0 0.0
2018-Feb-11 11:27N 40°38' W 074°10'0 0.0
2018-Feb-11 10:51N 40°38' W 074°10'0 0.0
2018-Feb-11 10:27N 40°38' W 074°10'0 0.0
2018-Feb-11 09:57N 40°38' W 074°10'0 0.0
2018-Feb-11 04:09N 40°38' W 074°10'0 0.0
2018-Feb-11 04:00N 40°38' W 074°10'1 1.5
2018-Feb-11 03:30N 40°39' W 074°10'2 3.8
2018-Feb-11 03:00N 40°38' W 074°12'2 4.4
2018-Feb-11 02:30N 40°35' W 074°12'  

Dump ship's entire track history